createdAt,value
2017-11-23T00:00:28.017Z,99940.03
2017-11-23T00:02:31.298Z,99935.98
2017-11-23T00:04:34.616Z,99943.66
2017-11-23T00:06:37.998Z,99939.20
2017-11-23T00:08:41.289Z,99940.13
2017-11-23T00:10:44.577Z,99937.84
2017-11-23T00:12:47.885Z,99932.55
2017-11-23T00:14:51.166Z,99923.61
2017-11-23T00:16:54.554Z,99918.63
2017-11-23T00:18:57.944Z,99913.23
2017-11-23T00:21:01.437Z,99916.45
2017-11-23T00:23:04.725Z,99913.33
2017-11-23T00:25:08.126Z,99899.44
2017-11-23T00:27:11.450Z,99900.79
2017-11-23T00:29:14.738Z,99914.39
2017-11-23T00:31:18.059Z,99919.70
2017-11-23T00:33:21.344Z,99910.34
2017-11-23T00:35:24.637Z,99920.73
2017-11-23T00:37:27.950Z,99918.96
2017-11-23T00:39:31.282Z,99918.45
2017-11-23T00:41:34.556Z,99922.08
2017-11-23T00:43:37.874Z,99918.45
2017-11-23T00:45:41.219Z,99923.84
2017-11-23T00:47:44.502Z,99921.14
2017-11-23T00:49:47.897Z,99922.49
2017-11-23T00:51:51.181Z,99924.78
2017-11-23T00:53:54.465Z,99922.08
2017-11-23T00:55:57.870Z,99923.02
2017-11-23T00:58:01.261Z,99920.31
2017-11-23T01:00:04.655Z,99917.20
2017-11-23T01:02:07.966Z,99906.49
2017-11-23T01:04:11.333Z,99913.24
2017-11-23T01:06:14.625Z,99911.38
2017-11-23T01:08:17.930Z,99910.55
2017-11-23T01:10:21.326Z,99906.08
2017-11-23T01:12:24.605Z,99908.78
2017-11-23T01:14:27.988Z,99910.64
2017-11-23T01:16:31.377Z,99898.49
2017-11-23T01:18:34.661Z,99890.81
2017-11-23T01:20:38.057Z,99888.11
2017-11-23T01:22:41.454Z,99888.24
2017-11-23T01:24:44.742Z,99890.01
2017-11-23T01:26:48.041Z,99885.13
2017-11-23T01:28:51.422Z,99883.36
2017-11-23T01:30:54.813Z,99883.64
2017-11-23T01:32:58.206Z,99881.49
2017-11-23T01:35:01.633Z,99876.61
2017-11-23T01:37:07.848Z,99863.94
2017-11-23T01:39:11.153Z,99882.94
2017-11-23T01:41:14.445Z,99885.13
2017-11-23T01:43:17.734Z,99880.14
2017-11-23T01:45:21.058Z,99870.80
2017-11-23T01:47:24.330Z,99872.56
2017-11-23T01:49:27.628Z,99862.69
2017-11-23T01:51:30.942Z,99865.80
2017-11-23T01:53:34.235Z,99860.41
2017-11-23T01:55:37.590Z,99857.29
2017-11-23T01:57:40.957Z,99851.47
2017-11-23T01:59:44.246Z,99847.42
2017-11-23T02:01:47.538Z,99851.47
2017-11-23T02:03:50.845Z,99839.84
2017-11-23T02:05:54.129Z,99828.20
2017-11-23T02:07:57.418Z,99819.69
2017-11-23T02:10:00.778Z,99812.01
2017-11-23T02:12:04.070Z,99806.19
2017-11-23T02:14:07.364Z,99800.80
2017-11-23T02:16:10.673Z,99803.63
2017-11-23T02:18:13.956Z,99807.02
2017-11-23T02:20:17.254Z,99802.66
2017-11-23T02:22:20.578Z,99795.91
2017-11-23T02:24:23.988Z,99797.26
2017-11-23T02:26:27.266Z,99803.20
2017-11-23T02:28:30.574Z,99800.09
2017-11-23T02:30:33.869Z,99796.45
2017-11-23T02:32:37.171Z,99796.88
2017-11-23T02:34:40.486Z,99807.67
2017-11-23T02:36:43.785Z,99815.77
2017-11-23T02:38:47.065Z,99820.20
2017-11-23T02:40:50.366Z,99826.58
2017-11-23T02:42:53.673Z,99828.72
2017-11-23T02:44:56.945Z,99821.56
2017-11-23T02:47:00.314Z,99813.08
2017-11-23T02:49:03.676Z,99799.95
2017-11-23T02:51:06.954Z,99794.97
2017-11-23T02:53:10.283Z,99791.06
2017-11-23T02:55:13.569Z,99796.88
2017-11-23T02:57:16.849Z,99803.63
2017-11-23T02:59:20.156Z,99798.74
2017-11-23T03:01:23.444Z,99795.11
2017-11-23T03:03:26.721Z,99786.59
2017-11-23T03:05:30.114Z,99772.16
2017-11-23T03:07:33.433Z,99769.98
2017-11-23T03:09:36.797Z,99768.11
2017-11-23T03:11:40.176Z,99774.96
2017-11-23T03:13:43.460Z,99777.14
2017-11-23T03:15:46.773Z,99774.96
2017-11-23T03:17:50.085Z,99786.59
2017-11-23T03:19:53.378Z,99790.64
2017-11-23T03:21:56.747Z,99791.58
2017-11-23T03:24:00.061Z,99803.20
2017-11-23T03:26:03.490Z,99793.34
2017-11-23T03:28:06.782Z,99792.92
2017-11-23T03:30:10.103Z,99787.11
2017-11-23T03:32:13.388Z,99781.71
2017-11-23T03:34:16.678Z,99783.58
2017-11-23T03:36:19.986Z,99777.24
2017-11-23T03:38:23.361Z,99780.87
2017-11-23T03:40:26.762Z,99775.38
2017-11-23T03:42:30.061Z,99774.55
2017-11-23T03:44:33.354Z,99773.71
2017-11-23T03:46:37.447Z,99775.99
2017-11-23T03:48:40.749Z,99785.86
2017-11-23T03:50:44.085Z,99787.52
2017-11-23T03:52:47.371Z,99784.83
2017-11-23T03:54:50.680Z,99768.20
2017-11-23T03:56:53.989Z,99769.66
2017-11-23T03:58:57.333Z,99770.91
2017-11-23T04:01:00.641Z,99766.44
2017-11-23T04:03:03.961Z,99770.50
2017-11-23T04:05:07.271Z,99770.50
2017-11-23T04:07:10.608Z,99783.48
2017-11-23T04:09:13.870Z,99779.53
2017-11-23T04:11:17.164Z,99782.33
2017-11-23T04:13:20.517Z,99773.19
2017-11-23T04:15:23.910Z,99774.96
2017-11-23T04:17:27.185Z,99773.61
2017-11-23T04:19:30.493Z,99776.52
2017-11-23T04:21:33.776Z,99771.02
2017-11-23T04:23:37.056Z,99762.91
2017-11-23T04:25:40.365Z,99752.53
2017-11-23T04:27:45.139Z,99758.45
2017-11-23T04:29:48.432Z,99763.84
2017-11-23T04:31:51.753Z,99751.80
2017-11-23T04:33:55.037Z,99755.75
2017-11-23T04:35:58.322Z,99753.05
2017-11-23T04:38:01.621Z,99739.97
2017-11-23T04:40:05.013Z,99737.78
2017-11-23T04:42:08.298Z,99738.72
2017-11-23T04:44:11.694Z,99730.20
2017-11-23T04:46:14.985Z,99733.73
2017-11-23T04:48:18.353Z,99731.97
2017-11-23T04:50:21.681Z,99731.03
2017-11-23T04:52:24.945Z,99731.03
2017-11-23T04:54:28.274Z,99728.33
2017-11-23T04:56:31.658Z,99727.92
2017-11-23T04:58:34.921Z,99725.73
2017-11-23T05:00:38.313Z,99727.92
2017-11-23T05:02:41.713Z,99708.19
2017-11-23T05:04:44.997Z,99707.80
2017-11-23T05:06:48.385Z,99709.53
2017-11-23T05:08:51.701Z,99710.37
2017-11-23T05:10:54.989Z,99708.50
2017-11-23T05:12:58.269Z,99714.41
2017-11-23T05:15:01.568Z,99727.50
2017-11-23T05:17:04.902Z,99713.59
2017-11-23T05:19:08.161Z,99701.98
2017-11-23T05:21:11.471Z,99711.02
2017-11-23T05:23:14.753Z,99710.09
2017-11-23T05:25:18.052Z,99709.16
2017-11-23T05:27:21.379Z,99714.55
2017-11-23T05:29:25.085Z,99725.88
2017-11-23T05:31:28.370Z,99736.67
2017-11-23T05:33:31.693Z,99746.95
2017-11-23T05:35:34.996Z,99733.45
2017-11-23T05:37:38.342Z,99713.20
2017-11-23T05:39:41.698Z,99711.30
2017-11-23T05:41:44.980Z,99724.39
2017-11-23T05:43:48.269Z,99724.39
2017-11-23T05:45:51.604Z,99733.45
2017-11-23T05:47:54.889Z,99735.19
2017-11-23T05:49:58.249Z,99739.78
2017-11-23T05:52:01.541Z,99727.08
2017-11-23T05:54:04.816Z,99722.10
2017-11-23T05:56:08.160Z,99728.44
2017-11-23T05:58:11.501Z,99720.75
2017-11-23T06:00:14.801Z,99708.73
2017-11-23T06:02:18.085Z,99700.64
2017-11-23T06:04:21.407Z,99701.05
2017-11-23T06:06:24.695Z,99703.85
2017-11-23T06:08:27.986Z,99701.16
2017-11-23T06:10:31.305Z,99692.64
2017-11-23T06:12:34.593Z,99696.69
2017-11-23T06:14:37.906Z,99697.11
2017-11-23T06:16:41.375Z,99693.47
2017-11-23T06:18:44.744Z,99704.69
2017-11-23T06:20:48.032Z,99706.97
2017-11-23T06:22:51.421Z,99709.16
2017-11-23T06:24:54.706Z,99691.70
2017-11-23T06:26:57.994Z,99693.89
2017-11-23T06:29:01.301Z,99697.52
2017-11-23T06:31:04.697Z,99699.28
2017-11-23T06:33:08.076Z,99701.16
2017-11-23T06:35:12.426Z,99681.19
2017-11-23T06:37:15.741Z,99699.70
2017-11-23T06:39:19.028Z,99696.17
2017-11-23T06:41:22.467Z,99691.98
2017-11-23T06:43:25.865Z,99686.59
2017-11-23T06:45:29.217Z,99686.59
2017-11-23T06:47:32.530Z,99675.79
2017-11-23T06:49:35.809Z,99689.28
2017-11-23T06:51:39.093Z,99688.35
2017-11-23T06:53:42.406Z,99696.45
2017-11-23T06:55:46.405Z,99704.45
2017-11-23T06:57:49.693Z,99692.82
2017-11-23T06:59:53.004Z,99695.52
2017-11-23T07:01:56.309Z,99698.63
2017-11-23T07:03:59.680Z,99701.75
2017-11-23T07:06:03.049Z,99695.94
2017-11-23T07:08:06.322Z,99698.95
2017-11-23T07:10:09.638Z,99693.13
2017-11-23T07:12:12.985Z,99702.16
2017-11-23T07:14:16.284Z,99689.50
2017-11-23T07:16:19.727Z,99694.38
2017-11-23T07:18:23.121Z,99692.20
2017-11-23T07:20:26.413Z,99706.53
2017-11-23T07:22:30.608Z,99697.70
2017-11-23T07:24:33.997Z,99702.27
2017-11-23T07:26:37.288Z,99705.91
2017-11-23T07:28:40.573Z,99701.44
2017-11-23T07:30:43.914Z,99703.34
2017-11-23T07:32:47.322Z,99696.59
2017-11-23T07:34:50.630Z,99696.17
2017-11-23T07:36:54.045Z,99694.69
2017-11-23T07:38:57.372Z,99694.30
2017-11-23T07:41:00.664Z,99709.02
2017-11-23T07:43:04.044Z,99694.17
2017-11-23T07:45:07.331Z,99694.48
2017-11-23T07:47:10.636Z,99705.28
2017-11-23T07:49:13.959Z,99708.91
2017-11-23T07:51:17.259Z,99707.46
2017-11-23T07:53:20.589Z,99703.83
2017-11-23T07:55:23.933Z,99705.18
2017-11-23T07:57:28.596Z,99706.95
2017-11-23T07:59:31.999Z,99709.75
2017-11-23T08:01:35.358Z,99712.97
2017-11-23T08:03:38.677Z,99706.22
2017-11-23T08:05:43.261Z,99707.98
2017-11-23T08:07:46.661Z,99712.97
2017-11-23T08:09:49.945Z,99699.47
2017-11-23T08:11:53.241Z,99704.45
2017-11-23T08:13:56.632Z,99729.78
2017-11-23T08:16:00.025Z,99713.06
2017-11-23T08:18:03.313Z,99726.05
2017-11-23T08:20:07.897Z,99715.25
2017-11-23T08:22:11.181Z,99709.84
2017-11-23T08:24:14.510Z,99721.06
2017-11-23T08:26:17.833Z,99717.12
2017-11-23T08:28:21.192Z,99733.83
2017-11-23T08:30:24.589Z,99741.13
2017-11-23T08:32:27.890Z,99743.00
2017-11-23T08:34:31.333Z,99747.05
2017-11-23T08:36:34.829Z,99730.02
2017-11-23T08:38:38.190Z,99736.25
2017-11-23T08:40:41.486Z,99745.80
2017-11-23T08:42:44.869Z,99743.30
2017-11-23T08:44:48.225Z,99739.26
2017-11-23T08:46:51.514Z,99733.47
2017-11-23T08:48:54.850Z,99746.56
2017-11-23T08:50:58.163Z,99737.73
2017-11-23T08:53:01.486Z,99737.31
2017-11-23T08:55:04.897Z,99741.27
2017-11-23T08:57:08.654Z,99743.13
2017-11-23T08:59:11.941Z,99750.47
2017-11-23T09:01:19.264Z,99749.54
2017-11-23T09:03:22.537Z,99744.55
2017-11-23T09:05:29.842Z,99759.92
2017-11-23T09:07:33.218Z,99751.62
2017-11-23T09:09:36.606Z,99759.30
2017-11-23T09:11:39.898Z,99757.44
2017-11-23T09:13:43.193Z,99762.84
2017-11-23T09:15:46.521Z,99760.13
2017-11-23T09:17:49.833Z,99767.20
2017-11-23T09:19:53.270Z,99782.98
2017-11-23T09:21:56.580Z,99776.52
2017-11-23T09:24:00.821Z,99800.09
2017-11-23T09:26:04.230Z,99775.55
2017-11-23T09:28:07.537Z,99782.94
2017-11-23T09:30:10.829Z,99786.34
2017-11-23T09:32:14.226Z,99786.96
2017-11-23T09:34:17.617Z,99792.95
2017-11-23T09:36:21.175Z,99815.58
2017-11-23T09:38:24.462Z,99806.44
2017-11-23T09:40:27.798Z,99793.02
2017-11-23T09:42:31.185Z,99814.70
2017-11-23T09:44:35.467Z,99800.47
2017-11-23T09:46:38.797Z,99816.86
2017-11-23T09:48:42.186Z,99814.12
2017-11-23T09:50:45.488Z,99811.64
2017-11-23T09:52:48.810Z,99815.56
2017-11-23T09:54:52.162Z,99822.84
2017-11-23T09:56:55.478Z,99827.90
2017-11-23T09:58:58.803Z,99813.22
2017-11-23T10:01:02.131Z,99824.23
2017-11-23T10:03:05.500Z,99828.98
2017-11-23T10:05:08.905Z,99833.18
2017-11-23T10:07:12.194Z,99841.98
2017-11-23T10:09:15.486Z,99839.78
2017-11-23T10:11:18.869Z,99839.16
2017-11-23T10:13:22.165Z,99851.91
2017-11-23T10:15:25.520Z,99853.47
2017-11-23T10:17:28.852Z,99847.73
2017-11-23T10:19:32.228Z,99848.36
2017-11-23T10:21:35.526Z,99849.98
2017-11-23T10:23:38.913Z,99843.86
2017-11-23T10:25:42.276Z,99859.84
2017-11-23T10:27:45.601Z,99842.58
2017-11-23T10:29:48.912Z,99856.83
2017-11-23T10:31:52.203Z,99866.46
2017-11-23T10:33:55.578Z,99857.73
2017-11-23T10:35:58.914Z,99850.98
2017-11-23T10:38:02.334Z,99868.83
2017-11-23T10:40:05.607Z,99878.59
2017-11-23T10:42:08.934Z,99879.33
2017-11-23T10:44:12.261Z,99880.55
2017-11-23T10:46:15.554Z,99878.58
2017-11-23T10:48:30.902Z,99910.39
2017-11-23T10:50:34.201Z,99915.14
2017-11-23T10:52:37.582Z,99896.43
2017-11-23T10:54:40.965Z,99879.55
2017-11-23T10:56:44.261Z,99896.09
2017-11-23T10:58:47.549Z,99912.63
2017-11-23T11:00:50.859Z,99912.39
2017-11-23T11:02:54.209Z,99897.83
2017-11-23T11:04:57.497Z,99891.91
2017-11-23T11:07:00.856Z,99909.14
2017-11-23T11:09:04.123Z,99912.67
2017-11-23T11:11:07.476Z,99898.91
2017-11-23T11:13:10.869Z,99892.88
2017-11-23T11:15:14.188Z,99898.89
2017-11-23T11:17:17.480Z,99902.73
2017-11-23T11:19:21.693Z,99897.13
2017-11-23T11:21:25.089Z,99904.06
2017-11-23T11:23:28.373Z,99925.59
2017-11-23T11:25:32.367Z,99922.78
2017-11-23T11:27:35.709Z,99917.66
2017-11-23T11:29:39.093Z,99933.26
2017-11-23T11:31:42.426Z,99920.98
2017-11-23T11:33:45.812Z,99934.79
2017-11-23T11:35:49.128Z,99937.39
2017-11-23T11:37:52.442Z,99930.84
2017-11-23T11:39:56.065Z,99947.77
2017-11-23T11:41:59.434Z,99936.84
2017-11-23T11:44:02.993Z,99937.67
2017-11-23T11:46:07.226Z,99949.71
2017-11-23T11:48:10.569Z,99933.09
2017-11-23T11:50:13.964Z,99952.03
2017-11-23T11:52:17.465Z,99959.59
2017-11-23T11:54:20.790Z,99949.71
2017-11-23T11:56:24.101Z,99970.31
2017-11-23T11:58:27.403Z,99968.02
2017-11-23T12:00:30.720Z,99956.68
2017-11-23T12:02:34.033Z,99967.08
2017-11-23T12:04:37.428Z,99973.84
2017-11-23T12:06:40.716Z,99968.33
2017-11-23T12:08:44.046Z,99962.41
2017-11-23T12:10:47.370Z,99963.75
2017-11-23T12:12:50.681Z,99972.67
2017-11-23T12:15:05.729Z,99959.28
2017-11-23T12:20:06.871Z,99968.02
2017-11-23T12:22:22.019Z,99972.49
2017-11-23T12:24:31.705Z,99983.31
2017-11-23T12:26:35.078Z,99978.21
2017-11-23T12:31:13.470Z,99982.14
2017-11-23T12:33:16.780Z,99966.33
2017-11-23T12:35:20.083Z,99983.39
2017-11-23T12:37:23.369Z,99983.08
2017-11-23T12:39:26.780Z,99971.84
2017-11-23T12:41:30.223Z,99977.02
2017-11-23T12:43:33.507Z,99977.84
2017-11-23T12:45:36.809Z,99980.73
2017-11-23T12:47:40.097Z,99973.16
2017-11-23T12:49:43.414Z,99981.28
2017-11-23T12:51:47.027Z,99978.99
2017-11-23T12:53:50.606Z,99980.87
2017-11-23T12:55:53.977Z,100008.33
2017-11-23T12:57:57.315Z,100008.02
2017-11-23T13:00:00.861Z,100025.08
2017-11-23T13:02:04.292Z,100004.69
2017-11-23T13:04:07.783Z,100008.33
2017-11-23T13:06:11.081Z,100016.31
2017-11-23T13:08:14.446Z,100022.06
2017-11-23T13:10:17.859Z,100019.67
2017-11-23T13:12:21.153Z,100022.66
2017-11-23T13:14:24.450Z,100029.84
2017-11-23T13:16:27.785Z,100031.09
2017-11-23T13:18:31.115Z,100032.86
2017-11-23T13:20:34.460Z,100044.20
2017-11-23T13:22:37.800Z,100013.92
2017-11-23T13:24:41.148Z,100015.80
2017-11-23T13:26:44.483Z,100022.04
2017-11-23T13:28:47.853Z,100018.50
2017-11-23T13:30:51.172Z,100017.56
2017-11-23T13:32:54.558Z,100024.75
2017-11-23T13:34:58.003Z,100011.73
2017-11-23T13:37:02.118Z,100009.03
2017-11-23T13:39:05.524Z,100015.90
2017-11-23T13:41:08.849Z,100021.86
2017-11-23T13:43:12.212Z,100026.34
2017-11-23T13:45:15.512Z,100016.45
2017-11-23T13:47:18.820Z,100016.87
2017-11-23T13:49:22.121Z,100037.67
2017-11-23T13:51:25.445Z,100024.15
2017-11-23T13:53:28.757Z,100037.26
2017-11-23T13:55:32.072Z,100030.08
2017-11-23T13:57:35.369Z,100036.84
2017-11-23T13:59:38.679Z,100025.29
2017-11-23T14:01:42.086Z,100028.94
2017-11-23T14:03:45.421Z,100029.84
2017-11-23T14:05:48.810Z,100034.83
2017-11-23T14:07:52.164Z,100030.39
2017-11-23T14:09:55.438Z,100025.36
2017-11-23T14:11:58.781Z,100040.23
2017-11-23T14:14:02.239Z,100028.62
2017-11-23T14:16:05.637Z,100042.94
2017-11-23T14:18:08.966Z,100038.50
2017-11-23T14:20:12.397Z,100043.91
2017-11-23T14:22:15.704Z,100049.01
2017-11-23T14:24:19.023Z,100053.06
2017-11-23T14:26:22.338Z,100058.99
2017-11-23T14:28:25.674Z,100056.29
2017-11-23T14:30:28.987Z,100058.68
2017-11-23T14:32:32.290Z,100066.80
2017-11-23T14:34:35.683Z,100068.66
2017-11-23T14:36:39.012Z,100070.85
2017-11-23T14:38:42.313Z,100068.80
2017-11-23T14:40:45.617Z,100069.63
2017-11-23T14:42:48.950Z,100082.73
2017-11-23T14:44:52.257Z,100079.62
2017-11-23T14:46:55.560Z,100086.80
2017-11-23T14:48:58.911Z,100073.27
2017-11-23T14:51:03.705Z,100072.44
2017-11-23T14:53:07.028Z,100077.02
2017-11-23T14:55:10.375Z,100078.78
2017-11-23T14:57:13.689Z,100081.59
2017-11-23T14:59:16.989Z,100081.27
2017-11-23T15:01:20.310Z,100088.59
2017-11-23T15:03:23.885Z,100087.34
2017-11-23T15:05:27.341Z,100093.16
2017-11-23T15:07:30.683Z,100125.72
2017-11-23T15:09:33.970Z,100083.80
2017-11-23T15:11:37.329Z,100088.37
2017-11-23T15:13:40.646Z,100087.95
2017-11-23T15:15:44.025Z,100092.66
2017-11-23T15:17:47.388Z,100098.08
2017-11-23T15:19:50.809Z,100099.95
2017-11-23T15:21:54.207Z,100093.19
2017-11-23T15:23:57.594Z,100107.64
2017-11-23T15:26:00.954Z,100112.22
2017-11-23T15:28:04.266Z,100105.97
2017-11-23T15:30:07.569Z,100112.73
2017-11-23T15:32:10.920Z,100110.55
2017-11-23T15:34:14.210Z,100123.66
2017-11-23T15:36:17.554Z,100123.78
2017-11-23T15:38:20.891Z,100127.01
2017-11-23T15:40:24.186Z,100114.52
2017-11-23T15:42:27.573Z,100129.39
2017-11-23T15:44:30.917Z,100130.44
2017-11-23T15:46:34.212Z,100179.24
2017-11-23T15:48:37.495Z,100200.46
2017-11-23T15:50:40.885Z,100210.86
2017-11-23T15:52:44.181Z,100220.01
2017-11-23T15:54:47.520Z,100231.77
2017-11-23T15:56:50.954Z,100240.81
2017-11-23T15:58:54.347Z,100244.97
2017-11-23T16:00:57.637Z,100244.58
2017-11-23T16:03:00.997Z,100248.09
2017-11-23T16:05:04.411Z,100251.86
2017-11-23T16:07:07.860Z,100256.53
2017-11-23T16:09:11.191Z,100265.16
2017-11-23T16:11:14.659Z,100271.08
2017-11-23T16:13:19.003Z,100277.04
2017-11-23T16:15:22.456Z,100275.78
2017-11-23T16:17:25.729Z,100277.23
2017-11-23T16:19:29.268Z,100284.61
2017-11-23T16:21:32.585Z,100291.92
2017-11-23T16:23:35.878Z,100293.05
2017-11-23T16:25:39.318Z,100298.04
2017-11-23T16:27:42.621Z,100297.33
2017-11-23T16:29:45.912Z,100299.72
2017-11-23T16:31:49.209Z,100300.23
2017-11-23T16:33:52.533Z,100308.77
2017-11-23T16:35:56.544Z,100315.52
2017-11-23T16:37:59.970Z,100323.22
2017-11-23T16:40:20.362Z,100320.52
2017-11-23T16:42:29.514Z,100328.20
2017-11-23T16:44:33.259Z,100329.23
2017-11-23T16:49:23.185Z,100336.55
2017-11-23T16:51:32.204Z,100347.36
2017-11-23T16:53:41.104Z,100343.82
2017-11-23T16:55:49.869Z,100353.38
2017-11-23T16:58:03.087Z,100361.49
2017-11-23T17:00:12.095Z,100374.59
2017-11-23T17:02:20.919Z,100374.17
2017-11-23T17:07:03.355Z,100393.20
2017-11-23T17:09:06.665Z,100405.78
2017-11-23T17:11:15.543Z,100400.38
2017-11-23T17:13:33.591Z,100408.06
2017-11-23T17:15:42.495Z,100417.23
2017-11-23T17:17:51.410Z,100421.81
2017-11-23T17:19:54.737Z,100425.45
2017-11-23T17:21:58.933Z,100430.02
2017-11-23T17:24:02.232Z,100438.55
2017-11-23T17:26:05.551Z,100439.90
2017-11-23T17:28:08.841Z,100436.36
2017-11-23T17:30:12.139Z,100440.73
2017-11-23T17:32:15.454Z,100438.97
2017-11-23T17:34:18.788Z,100436.78
2017-11-23T17:36:22.082Z,100443.53
2017-11-23T17:38:25.434Z,100446.23
2017-11-23T17:40:28.757Z,100455.28
2017-11-23T17:42:32.048Z,100455.28
2017-11-23T17:44:35.385Z,100460.27
2017-11-23T17:46:38.731Z,100467.13
2017-11-23T17:48:42.089Z,100463.48
2017-11-23T17:50:45.401Z,100465.36
2017-11-23T17:52:48.700Z,100466.32
2017-11-23T17:54:52.004Z,100460.91
2017-11-23T17:56:55.401Z,100455.61
2017-11-23T17:58:58.775Z,100453.84
2017-11-23T18:01:02.162Z,100457.89
2017-11-23T18:03:05.481Z,100457.89
2017-11-23T18:05:08.914Z,100457.05
2017-11-23T18:07:12.318Z,100461.20
2017-11-23T18:09:15.641Z,100465.25
2017-11-23T18:11:18.949Z,100467.13
2017-11-23T18:13:22.275Z,100463.06
2017-11-23T18:15:25.600Z,100464.42
2017-11-23T18:17:28.866Z,100468.19
2017-11-23T18:19:32.194Z,100464.13
2017-11-23T18:21:35.537Z,100467.77
2017-11-23T18:23:38.874Z,100467.77
2017-11-23T18:25:42.178Z,100475.04
2017-11-23T18:27:45.557Z,100475.04
2017-11-23T18:29:48.924Z,100479.09
2017-11-23T18:31:52.223Z,100480.45
2017-11-23T18:33:55.598Z,100482.73
2017-11-23T18:35:58.972Z,100485.02
2017-11-23T18:38:02.254Z,100482.31
2017-11-23T18:40:05.577Z,100487.30
2017-11-23T18:42:08.879Z,100484.08
2017-11-23T18:44:12.163Z,100481.89
2017-11-23T18:46:15.475Z,100481.80
2017-11-23T18:48:18.768Z,100488.66
2017-11-23T18:50:22.140Z,100481.89
2017-11-23T18:52:25.466Z,100472.44
2017-11-23T18:54:28.818Z,100472.02
2017-11-23T18:56:32.147Z,100467.54
2017-11-23T18:58:35.503Z,100473.88
2017-11-23T19:00:38.801Z,100468.05
2017-11-23T19:02:42.090Z,100481.18
2017-11-23T19:04:45.405Z,100504.55
2017-11-23T19:06:48.709Z,100501.55
2017-11-23T19:08:52.213Z,100505.70
2017-11-23T19:10:55.530Z,100513.72
2017-11-23T19:12:58.900Z,100523.27
2017-11-23T19:15:02.182Z,100540.42
2017-11-23T19:17:05.509Z,100531.90
2017-11-23T19:19:08.809Z,100543.64
2017-11-23T19:21:12.098Z,100541.45
2017-11-23T19:23:15.511Z,100546.86
2017-11-23T19:25:18.836Z,100551.04
2017-11-23T19:27:22.160Z,100557.80
2017-11-23T19:29:25.477Z,100556.45
2017-11-23T19:31:28.769Z,100559.15
2017-11-23T19:33:32.142Z,100569.13
2017-11-23T19:35:35.630Z,100575.14
2017-11-23T19:37:39.029Z,100573.37
2017-11-23T19:39:42.325Z,100565.77
2017-11-23T19:41:45.659Z,100566.31
2017-11-23T19:43:50.334Z,100575.78
2017-11-23T19:45:53.676Z,100581.70
2017-11-23T19:47:56.982Z,100577.64
2017-11-23T19:50:00.279Z,100579.50
2017-11-23T19:52:03.610Z,100580.86
2017-11-23T19:54:06.988Z,100586.27
2017-11-23T19:56:10.363Z,100590.41
2017-11-23T19:58:13.777Z,100593.20
2017-11-23T20:00:17.097Z,100593.72
2017-11-23T20:02:20.405Z,100596.04
2017-11-23T20:04:23.709Z,100603.73
2017-11-23T20:06:27.028Z,100606.95
2017-11-23T20:08:30.403Z,100616.08
2017-11-23T20:10:33.860Z,100621.48
2017-11-23T20:12:37.184Z,100619.30
2017-11-23T20:14:40.496Z,100617.52
2017-11-23T20:16:43.792Z,100617.65
2017-11-23T20:18:47.233Z,100613.59
2017-11-23T20:20:50.620Z,100614.11
2017-11-23T20:22:53.900Z,100621.38
2017-11-23T20:24:57.236Z,100619.09
2017-11-23T20:27:00.629Z,100625.52
2017-11-23T20:29:03.919Z,100621.98
2017-11-23T20:31:07.229Z,100614.30
2017-11-23T20:33:10.529Z,100608.05
2017-11-23T20:35:13.823Z,100614.93
2017-11-23T20:37:17.129Z,100624.39
2017-11-23T20:39:20.438Z,100623.23
2017-11-23T20:41:23.762Z,100625.93
2017-11-23T20:43:27.130Z,100628.62
2017-11-23T20:45:30.438Z,100625.51
2017-11-23T20:47:33.825Z,100639.02
2017-11-23T20:49:37.143Z,100640.98
2017-11-23T20:51:40.475Z,100641.94
2017-11-23T20:53:43.773Z,100641.61
2017-11-23T20:55:47.187Z,100648.80
2017-11-23T20:57:50.491Z,100643.80
2017-11-23T20:59:53.782Z,100639.42
2017-11-23T21:01:57.098Z,100630.80
2017-11-23T21:04:00.408Z,100622.80
2017-11-23T21:06:03.711Z,100625.08
2017-11-23T21:08:07.137Z,100628.70
2017-11-23T21:10:10.433Z,100632.25
2017-11-23T21:12:13.941Z,100632.86
2017-11-23T21:14:17.249Z,100641.92
2017-11-23T21:16:20.550Z,100648.69
2017-11-23T21:18:23.842Z,100647.33
2017-11-23T21:20:27.511Z,100640.67
2017-11-23T21:22:30.802Z,100648.36
2017-11-23T21:24:34.106Z,100637.55
2017-11-23T21:26:37.621Z,100636.19
2017-11-23T21:28:40.905Z,100641.59
2017-11-23T21:30:44.233Z,100639.83
2017-11-23T21:32:47.548Z,100640.25
2017-11-23T21:34:50.921Z,100642.62
2017-11-23T21:36:54.340Z,100641.78
2017-11-23T21:38:57.699Z,100656.35
2017-11-23T21:41:01.089Z,100658.22
2017-11-23T21:43:04.402Z,100656.44
2017-11-23T21:45:07.713Z,100654.67
2017-11-23T21:47:11.026Z,100657.37
2017-11-23T21:49:14.352Z,100651.04
2017-11-23T21:51:17.680Z,100655.16
2017-11-23T21:53:20.970Z,100655.16
2017-11-23T21:55:24.268Z,100655.16
2017-11-23T21:57:27.591Z,100647.98
2017-11-23T21:59:30.972Z,100647.98
2017-11-23T22:01:34.255Z,100644.86
2017-11-23T22:03:37.583Z,100638.61
2017-11-23T22:05:40.889Z,100636.84
2017-11-23T22:07:44.331Z,100632.70
2017-11-23T22:09:47.638Z,100629.70
2017-11-23T22:11:50.948Z,100635.11
2017-11-23T22:13:54.442Z,100639.16
2017-11-23T22:15:57.806Z,100645.49
2017-11-23T22:18:01.155Z,100642.88
2017-11-23T22:20:04.476Z,100637.90
2017-11-23T22:22:07.818Z,100642.88
2017-11-23T22:24:11.142Z,100637.48
2017-11-23T22:26:14.444Z,100638.92
2017-11-23T22:28:17.765Z,100637.06
2017-11-23T22:30:21.161Z,100633.94
2017-11-23T22:32:24.461Z,100631.23
2017-11-23T22:34:27.781Z,100630.39
2017-11-23T22:36:31.071Z,100628.11
2017-11-23T22:38:34.357Z,100622.30
2017-11-23T22:40:37.718Z,100629.47
2017-11-23T22:42:41.067Z,100630.91
2017-11-23T22:44:44.372Z,100633.19
2017-11-23T22:46:47.684Z,100643.58
2017-11-23T22:48:50.973Z,100648.38
2017-11-23T22:50:54.266Z,100647.25
2017-11-23T22:52:57.577Z,100629.69
2017-11-23T22:55:00.954Z,100636.02
2017-11-23T22:57:04.337Z,100634.25
2017-11-23T22:59:07.896Z,100636.53
2017-11-23T23:01:11.240Z,100622.19
2017-11-23T23:03:14.531Z,100618.22
2017-11-23T23:05:17.910Z,100615.42
2017-11-23T23:07:21.300Z,100616.45
2017-11-23T23:09:24.648Z,100606.06
2017-11-23T23:11:28.021Z,100627.26
2017-11-23T23:13:31.334Z,100621.86
2017-11-23T23:15:34.762Z,100614.68
2017-11-23T23:17:38.078Z,100616.03
2017-11-23T23:19:41.374Z,100606.70
2017-11-23T23:21:44.678Z,100598.27
2017-11-23T23:23:47.997Z,100602.73
2017-11-23T23:25:51.288Z,100606.28
2017-11-23T23:27:54.622Z,100601.91
2017-11-23T23:29:57.989Z,100611.78
2017-11-23T23:32:01.381Z,100608.14
2017-11-23T23:34:04.678Z,100603.16
2017-11-23T23:36:08.028Z,100602.73
2017-11-23T23:38:11.301Z,100607.72
2017-11-23T23:40:14.604Z,100606.80
2017-11-23T23:42:17.916Z,100613.13
2017-11-23T23:44:21.263Z,100615.92
2017-11-23T23:46:24.573Z,100615.59
2017-11-23T23:48:27.876Z,100611.03
2017-11-23T23:50:31.173Z,100615.92
2017-11-23T23:52:34.468Z,100613.31
2017-11-23T23:54:37.781Z,100613.31
2017-11-23T23:56:41.086Z,100605.63
2017-11-23T23:58:44.378Z,100604.78
